createdAt,value
2019-06-07T00:00:51.517Z,7.30
2019-06-07T00:03:27.537Z,7.47
2019-06-07T00:05:51.986Z,7.57
2019-06-07T00:08:27.322Z,7.30
2019-06-07T00:10:52.427Z,7.80
2019-06-07T00:13:21.780Z,8.77
2019-06-07T00:15:51.164Z,8.20
2019-06-07T00:18:25.683Z,8.10
2019-06-07T00:20:51.640Z,7.73
2019-06-07T00:23:22.806Z,8.07
2019-06-07T00:25:52.137Z,7.93
2019-06-07T00:28:21.461Z,7.77
2019-06-07T00:30:52.504Z,7.93
2019-06-07T00:33:24.516Z,7.60
2019-06-07T00:35:53.014Z,8.10
2019-06-07T00:38:22.365Z,7.87
2019-06-07T00:40:51.740Z,7.40
2019-06-07T00:43:27.991Z,8.00
2019-06-07T00:45:52.217Z,7.33
2019-06-07T00:48:30.830Z,8.87
2019-06-07T00:50:52.693Z,8.13
2019-06-07T00:53:31.243Z,9.37
2019-06-07T00:55:53.447Z,9.17
2019-06-07T00:58:27.463Z,9.37
2019-06-07T01:00:53.874Z,9.10
2019-06-07T01:03:25.699Z,8.87
2019-06-07T01:05:54.392Z,9.90
2019-06-07T01:08:27.695Z,10.50
2019-06-07T01:10:54.977Z,10.67
2019-06-07T01:13:26.764Z,9.90
2019-06-07T01:15:55.418Z,11.33
2019-06-07T01:18:46.236Z,10.73
2019-06-07T01:20:55.906Z,10.27
2019-06-07T01:23:59.402Z,10.87
2019-06-07T01:25:56.469Z,11.47
2019-06-07T01:28:27.094Z,11.27
2019-06-07T01:30:57.067Z,11.33
2019-06-07T01:33:46.425Z,12.20
2019-06-07T01:35:57.518Z,11.40
2019-06-07T01:38:26.993Z,12.87
2019-06-07T01:40:56.354Z,11.93
2019-06-07T01:43:28.180Z,11.50
2019-06-07T01:45:56.848Z,13.13
2019-06-07T01:48:46.222Z,12.90
2019-06-07T01:50:57.284Z,12.57
2019-06-07T01:53:29.135Z,12.00
2019-06-07T01:55:57.713Z,12.83
2019-06-07T01:58:29.113Z,12.47
2019-06-07T02:00:58.163Z,12.33
2019-06-07T02:03:32.264Z,12.57
2019-06-07T02:05:58.613Z,10.97
2019-06-07T02:08:34.086Z,12.93
2019-06-07T02:10:59.016Z,12.60
2019-06-07T02:13:30.587Z,13.37
2019-06-07T02:15:59.508Z,12.20
2019-06-07T02:18:34.328Z,11.33
2019-06-07T02:20:59.932Z,11.60
2019-06-07T02:23:31.665Z,11.57
2019-06-07T02:26:00.500Z,11.87
2019-06-07T02:28:40.155Z,10.93
2019-06-07T02:31:00.956Z,12.57
2019-06-07T02:33:35.083Z,12.57
2019-06-07T02:36:01.599Z,13.67
2019-06-07T02:38:35.919Z,11.70
2019-06-07T02:41:02.126Z,13.17
2019-06-07T02:43:35.769Z,13.77
2019-06-07T02:46:24.067Z,13.53
2019-06-07T02:48:39.461Z,14.40
2019-06-07T02:51:05.017Z,13.23
2019-06-07T02:53:40.133Z,15.30
2019-06-07T02:56:37.829Z,14.60
2019-06-07T02:58:41.540Z,14.70
2019-06-07T03:01:09.725Z,13.83
2019-06-07T03:03:40.197Z,15.33
2019-06-07T03:06:11.814Z,14.17
2019-06-07T03:08:43.013Z,15.83
2019-06-07T03:11:14.500Z,14.97
2019-06-07T03:13:46.310Z,14.87
2019-06-07T03:16:20.612Z,15.67
2019-06-07T03:19:18.162Z,15.57
2019-06-07T03:21:54.125Z,17.60
2019-06-07T03:24:29.388Z,15.43
2019-06-07T03:29:28.920Z,16.33
2019-06-07T03:31:59.021Z,16.83
2019-06-07T03:34:29.710Z,16.00
2019-06-07T03:36:59.496Z,16.33
2019-06-07T03:39:29.587Z,17.03
2019-06-07T03:42:19.070Z,17.70
2019-06-07T03:44:38.224Z,17.23
2019-06-07T03:47:06.722Z,17.30
2019-06-07T03:49:41.715Z,16.83
2019-06-07T03:52:07.978Z,16.93
2019-06-07T03:54:39.760Z,15.40
2019-06-07T03:57:08.448Z,15.57
2019-06-07T03:59:41.296Z,16.73
2019-06-07T04:02:08.932Z,17.43
2019-06-07T04:04:39.792Z,16.97
2019-06-07T04:07:09.367Z,17.03
2019-06-07T04:09:42.476Z,16.10
2019-06-07T04:12:09.788Z,16.13
2019-06-07T04:14:42.532Z,17.83
2019-06-07T04:17:10.264Z,15.97
2019-06-07T04:19:43.418Z,17.30
2019-06-07T04:22:10.829Z,17.23
2019-06-07T04:24:41.926Z,16.80
2019-06-07T04:27:11.270Z,16.97
2019-06-07T04:30:04.843Z,19.90
2019-06-07T04:32:11.769Z,20.17
2019-06-07T04:34:43.120Z,18.03
2019-06-07T04:37:12.844Z,21.37
2019-06-07T04:39:45.336Z,16.77
2019-06-07T04:42:17.963Z,17.57
2019-06-07T04:46:18.477Z,17.03
2019-06-07T04:48:56.333Z,18.37
2019-06-07T04:55:15.422Z,15.40
2019-06-07T04:57:44.962Z,18.70
2019-06-07T05:00:46.808Z,17.17
2019-06-07T05:02:47.172Z,16.63
2019-06-07T05:05:16.577Z,15.80
2019-06-07T05:07:46.454Z,17.37
2019-06-07T05:10:15.930Z,16.43
2019-06-07T05:12:46.589Z,22.05
2019-06-07T05:15:16.367Z,17.90
2019-06-07T05:17:45.771Z,18.10
2019-06-07T05:20:16.030Z,19.20
2019-06-07T05:22:45.667Z,18.17
2019-06-07T05:25:15.735Z,19.47
2019-06-07T05:27:46.961Z,18.50
2019-06-07T05:33:10.413Z,15.83
2019-06-07T05:35:42.983Z,16.67
2019-06-07T05:38:10.964Z,15.87
2019-06-07T05:40:43.755Z,16.20
2019-06-07T05:43:23.323Z,19.47
2019-06-07T05:45:52.740Z,18.23
2019-06-07T05:48:22.136Z,17.63
2019-06-07T05:50:56.824Z,16.47
2019-06-07T05:53:22.726Z,18.70
2019-06-07T05:55:52.120Z,17.53
2019-06-07T05:58:21.604Z,17.07
2019-06-07T06:00:51.159Z,16.90
2019-06-07T06:03:20.651Z,14.07
2019-06-07T06:05:55.033Z,13.87
2019-06-07T06:08:21.241Z,15.13
2019-06-07T06:10:50.698Z,15.80
2019-06-07T06:13:20.067Z,14.90
2019-06-07T06:16:00.358Z,15.30
2019-06-07T06:18:20.578Z,14.27
2019-06-07T06:21:12.798Z,14.80
2019-06-07T06:23:21.056Z,13.10
2019-06-07T06:25:56.520Z,13.83
2019-06-07T06:28:21.616Z,12.17
2019-06-07T06:30:51.100Z,12.07
2019-06-07T06:33:33.664Z,12.03
2019-06-07T06:35:51.692Z,12.40
2019-06-07T06:38:21.149Z,12.17
2019-06-07T06:41:11.088Z,11.70
2019-06-07T06:43:21.683Z,11.47
2019-06-07T06:45:51.175Z,11.10
2019-06-07T06:48:20.776Z,11.93
2019-06-07T06:50:52.346Z,10.63
2019-06-07T06:53:21.274Z,10.37
2019-06-07T06:55:51.423Z,9.60
2019-06-07T06:58:21.002Z,9.40
2019-06-07T07:01:04.845Z,9.37
2019-06-07T07:05:55.244Z,9.17
2019-06-07T07:08:24.742Z,8.00
2019-06-07T07:10:55.056Z,9.67
2019-06-07T07:13:24.671Z,8.97
2019-06-07T07:15:58.095Z,9.27
2019-06-07T07:18:25.251Z,8.70
2019-06-07T07:20:57.258Z,9.00
2019-06-07T07:23:25.903Z,8.43
2019-06-07T07:25:59.449Z,8.37
2019-06-07T07:28:26.477Z,8.43
2019-06-07T07:30:57.246Z,8.50
2019-06-07T07:34:19.816Z,9.43
2019-06-07T07:36:28.581Z,10.07
2019-06-07T07:38:29.244Z,10.63
2019-06-07T07:41:14.158Z,12.03
2019-06-07T07:43:29.863Z,10.73
2019-06-07T07:46:03.315Z,12.87
2019-06-07T07:48:31.092Z,12.80
2019-06-07T07:51:03.066Z,11.87
2019-06-07T07:53:47.953Z,12.10
2019-06-07T07:56:02.986Z,12.40
2019-06-07T07:58:32.560Z,12.13
2019-06-07T08:01:10.129Z,11.53
2019-06-07T08:03:33.103Z,12.67
2019-06-07T08:06:02.566Z,11.33
2019-06-07T08:08:32.061Z,11.33
2019-06-07T08:11:02.363Z,11.47
2019-06-07T08:13:32.127Z,11.77
2019-06-07T08:16:10.822Z,10.37
2019-06-07T08:18:32.662Z,9.73
2019-06-07T08:21:21.312Z,10.80
2019-06-07T08:23:33.185Z,10.57
2019-06-07T08:26:02.578Z,10.67
2019-06-07T08:28:32.060Z,10.53
2019-06-07T08:31:06.887Z,11.60
2019-06-07T08:33:32.589Z,10.80
2019-06-07T08:36:14.177Z,10.40
2019-06-07T08:38:46.941Z,10.17
2019-06-07T08:41:11.458Z,10.40
2019-06-07T08:43:35.431Z,10.53
2019-06-07T08:46:07.787Z,10.10
2019-06-07T08:48:36.068Z,8.50
2019-06-07T08:51:08.158Z,7.67
2019-06-07T08:53:36.655Z,8.43
2019-06-07T08:56:10.581Z,7.57
2019-06-07T08:58:37.266Z,7.83
2019-06-07T09:01:08.843Z,8.03
2019-06-07T09:03:37.891Z,7.60
2019-06-07T09:06:53.811Z,7.97
2019-06-07T09:08:38.705Z,7.63
2019-06-07T09:11:11.237Z,7.37
2019-06-07T09:13:39.349Z,8.03
2019-06-07T09:16:09.146Z,6.40
2019-06-07T09:18:43.799Z,6.50
2019-06-07T09:21:10.118Z,7.03
2019-06-07T09:23:39.552Z,7.40
2019-06-07T09:26:17.639Z,6.57
2019-06-07T09:28:40.331Z,6.70
2019-06-07T09:31:12.480Z,6.10
2019-06-07T09:33:40.906Z,7.30
2019-06-07T09:36:13.101Z,6.00
2019-06-07T09:38:42.491Z,6.23
2019-06-07T09:41:11.934Z,6.40
2019-06-07T09:46:15.660Z,6.37
2019-06-07T09:51:19.984Z,6.33
2019-06-07T09:53:45.973Z,5.47
2019-06-07T09:56:15.413Z,5.43
2019-06-07T09:58:52.138Z,6.20
2019-06-07T10:01:15.928Z,5.97
2019-06-07T10:03:45.344Z,6.03
2019-06-07T10:06:14.745Z,4.83
2019-06-07T10:11:16.554Z,5.50
2019-06-07T10:13:45.968Z,5.57
2019-06-07T10:16:15.437Z,5.33
2019-06-07T10:18:44.871Z,6.27
2019-06-07T10:21:15.355Z,6.37
2019-06-07T10:23:45.087Z,5.30
2019-06-07T10:26:14.636Z,4.90
2019-06-07T10:28:44.104Z,5.60
2019-06-07T10:31:13.595Z,5.50
2019-06-07T10:33:43.044Z,5.97
2019-06-07T10:36:12.521Z,6.40
2019-06-07T10:38:41.931Z,5.67
2019-06-07T10:41:11.331Z,4.93
2019-06-07T10:43:40.772Z,5.17
2019-06-07T10:46:11.893Z,5.43
2019-06-07T10:48:41.681Z,5.73
2019-06-07T10:51:12.475Z,5.57
2019-06-07T10:53:42.330Z,5.50
2019-06-07T10:56:13.204Z,6.57
2019-06-07T10:58:43.178Z,5.93
2019-06-07T11:01:14.306Z,6.57
2019-06-07T11:03:43.946Z,5.57
2019-06-07T11:06:14.292Z,5.77
2019-06-07T11:08:43.920Z,5.47
2019-06-07T11:11:14.449Z,5.37
2019-06-07T11:13:43.891Z,5.00
2019-06-07T11:16:13.383Z,4.90
2019-06-07T11:18:42.839Z,4.37
2019-06-07T11:21:12.256Z,4.50
2019-06-07T11:23:41.714Z,4.00
2019-06-07T11:26:12.360Z,4.27
2019-06-07T11:28:41.962Z,4.83
2019-06-07T11:31:12.924Z,4.60
2019-06-07T11:33:43.103Z,4.30
2019-06-07T11:36:12.885Z,3.77
2019-06-07T11:38:42.681Z,3.20
2019-06-07T11:41:12.050Z,3.20
2019-06-07T11:43:41.516Z,3.33
2019-06-07T11:46:11.069Z,3.80
2019-06-07T11:48:40.506Z,4.23
2019-06-07T11:51:10.823Z,3.63
2019-06-07T11:53:40.459Z,3.80
2019-06-07T11:56:10.333Z,3.90
2019-06-07T11:58:39.939Z,4.23
2019-06-07T12:01:09.688Z,4.27
2019-06-07T12:03:39.184Z,3.80
2019-06-07T12:06:09.868Z,3.87
2019-06-07T12:08:39.387Z,3.90
2019-06-07T12:11:10.040Z,4.20
2019-06-07T12:13:39.562Z,4.17
2019-06-07T12:16:09.194Z,4.10
2019-06-07T12:18:38.612Z,3.70
2019-06-07T12:21:09.417Z,3.93
2019-06-07T12:23:39.197Z,3.20
2019-06-07T12:26:08.684Z,4.33
2019-06-07T12:28:55.995Z,3.57
2019-06-07T12:31:58.560Z,3.60
2019-06-07T12:34:58.159Z,3.20
2019-06-07T12:37:42.671Z,4.20
2019-06-07T12:39:58.960Z,3.60
2019-06-07T12:42:28.341Z,3.27
2019-06-07T12:45:00.102Z,3.43
2019-06-07T12:47:29.559Z,3.10
2019-06-07T12:49:58.987Z,3.10
2019-06-07T12:52:28.381Z,3.13
2019-06-07T12:54:57.729Z,2.80
2019-06-07T12:57:27.187Z,3.40
2019-06-07T12:59:56.714Z,2.70
2019-06-07T13:02:26.154Z,2.87
2019-06-07T13:04:55.608Z,3.00
2019-06-07T13:07:25.019Z,2.30
2019-06-07T13:09:54.472Z,2.50
2019-06-07T13:12:23.940Z,2.83
2019-06-07T13:14:53.338Z,2.37
2019-06-07T13:17:24.097Z,2.10
2019-06-07T13:19:53.695Z,2.20
2019-06-07T13:22:24.292Z,2.53
2019-06-07T13:24:53.978Z,2.10
2019-06-07T13:27:24.538Z,2.37
2019-06-07T13:29:54.093Z,2.17
2019-06-07T13:32:23.743Z,1.80
2019-06-07T13:34:53.255Z,2.40
2019-06-07T13:37:23.358Z,1.93
2019-06-07T13:39:52.857Z,2.30
2019-06-07T13:42:22.835Z,2.20
2019-06-07T13:44:52.478Z,2.03
2019-06-07T13:47:23.126Z,1.87
2019-06-07T13:49:55.121Z,2.07
2019-06-07T13:52:23.754Z,1.80
2019-06-07T13:54:53.171Z,2.03
2019-06-07T13:57:24.245Z,1.83
2019-06-07T13:59:53.815Z,1.90
2019-06-07T14:02:25.714Z,2.17
2019-06-07T14:04:56.111Z,2.07
2019-06-07T14:07:28.610Z,1.80
2019-06-07T14:09:59.422Z,2.00
2019-06-07T14:12:29.653Z,2.07
2019-06-07T14:15:01.621Z,2.00
2019-06-07T14:17:32.586Z,4.80
2019-06-07T14:20:02.847Z,1.70
2019-06-07T14:22:32.582Z,2.00
2019-06-07T14:25:02.277Z,1.53
2019-06-07T14:27:31.979Z,1.67
2019-06-07T14:30:01.470Z,2.00
2019-06-07T14:32:30.995Z,2.13
2019-06-07T14:35:00.449Z,1.83
2019-06-07T14:37:30.955Z,1.70
2019-06-07T14:40:00.542Z,1.43
2019-06-07T14:42:31.196Z,1.30
2019-06-07T14:45:05.751Z,1.80
2019-06-07T14:47:32.041Z,2.27
2019-06-07T14:50:01.511Z,1.80
2019-06-07T14:52:30.876Z,1.40
2019-06-07T14:55:00.294Z,1.83
2019-06-07T14:57:30.772Z,1.70
2019-06-07T15:00:10.249Z,1.70
2019-06-07T15:02:35.864Z,1.43
2019-06-07T15:05:03.389Z,1.80
2019-06-07T15:07:32.993Z,1.50
2019-06-07T15:10:02.582Z,1.70
2019-06-07T15:12:33.254Z,2.10
2019-06-07T15:15:02.770Z,1.93
2019-06-07T15:17:33.270Z,1.53
2019-06-07T15:20:03.084Z,1.80
2019-06-07T15:22:34.017Z,1.73
2019-06-07T15:25:03.467Z,1.57
2019-06-07T15:27:33.262Z,1.60
2019-06-07T15:30:09.866Z,1.90
2019-06-07T15:32:35.614Z,1.80
2019-06-07T15:35:05.690Z,1.67
2019-06-07T15:37:35.062Z,1.70
2019-06-07T15:40:04.781Z,1.83
2019-06-07T15:42:47.532Z,1.47
2019-06-07T15:45:05.588Z,1.47
2019-06-07T15:47:35.893Z,1.80
2019-06-07T15:50:06.331Z,1.70
2019-06-07T15:52:35.789Z,1.57
2019-06-07T15:55:05.793Z,1.80
2019-06-07T15:57:37.149Z,1.80
2019-06-07T16:00:08.509Z,1.67
2019-06-07T16:02:51.367Z,2.07
2019-06-07T16:05:21.049Z,1.83
2019-06-07T16:07:50.470Z,1.70
2019-06-07T16:10:19.881Z,1.57
2019-06-07T16:13:00.327Z,1.87
2019-06-07T16:15:20.858Z,1.70
2019-06-07T16:17:50.197Z,1.70
2019-06-07T16:20:19.593Z,1.67
2019-06-07T16:22:49.084Z,1.80
2019-06-07T16:25:19.407Z,1.60
2019-06-07T16:27:48.793Z,2.00
2019-06-07T16:30:18.506Z,1.63
2019-06-07T16:32:47.923Z,1.70
2019-06-07T16:35:26.205Z,2.10
2019-06-07T16:37:58.051Z,1.63
2019-06-07T16:40:27.566Z,1.70
2019-06-07T16:42:57.099Z,1.87
2019-06-07T16:45:26.577Z,2.10
2019-06-07T16:47:56.059Z,1.87
2019-06-07T16:50:25.468Z,2.00
2019-06-07T16:52:54.954Z,1.60
2019-06-07T16:55:24.444Z,2.13
2019-06-07T16:57:53.844Z,1.90
2019-06-07T17:00:23.857Z,1.60
2019-06-07T17:02:53.310Z,2.73
2019-06-07T17:05:22.905Z,3.83
2019-06-07T17:07:52.466Z,3.20
2019-06-07T17:10:22.077Z,3.00
2019-06-07T17:12:51.612Z,2.97
2019-06-07T17:15:21.527Z,2.90
2019-06-07T17:17:51.279Z,3.50
2019-06-07T17:20:45.285Z,2.50
2019-06-07T17:23:14.740Z,6.30
2019-06-07T17:25:45.225Z,3.33
2019-06-07T17:28:15.003Z,2.60
2019-06-07T17:30:45.993Z,3.07
2019-06-07T17:33:15.705Z,3.67
2019-06-07T17:35:46.488Z,3.03
2019-06-07T17:38:16.472Z,3.20
2019-06-07T17:40:47.132Z,4.17
2019-06-07T17:43:16.860Z,3.47
2019-06-07T17:45:47.440Z,2.50
2019-06-07T17:48:17.051Z,2.60
2019-06-07T17:50:56.116Z,3.90
2019-06-07T17:53:25.788Z,4.03
2019-06-07T17:55:55.258Z,2.60
2019-06-07T17:58:24.602Z,2.90
2019-06-07T18:00:54.194Z,2.80
2019-06-07T18:03:23.620Z,2.77
2019-06-07T18:05:54.270Z,2.30
2019-06-07T18:08:24.775Z,2.67
2019-06-07T18:10:54.345Z,1.80
2019-06-07T18:13:23.739Z,1.90
2019-06-07T18:15:57.915Z,1.50
2019-06-07T18:18:24.287Z,2.30
2019-06-07T18:20:53.715Z,1.80
2019-06-07T18:23:42.297Z,2.10
2019-06-07T18:26:11.853Z,1.93
2019-06-07T18:28:41.320Z,2.10
2019-06-07T18:31:10.690Z,1.70
2019-06-07T18:33:40.044Z,2.73
2019-06-07T18:36:09.390Z,2.97
2019-06-07T18:38:38.722Z,1.73
2019-06-07T18:41:12.780Z,1.30
2019-06-07T18:43:42.236Z,1.57
2019-06-07T18:46:11.977Z,1.50
2019-06-07T18:48:43.343Z,1.77
2019-06-07T18:51:12.967Z,1.43
2019-06-07T18:53:44.720Z,1.30
2019-06-07T18:56:14.176Z,1.30
2019-06-07T18:58:43.848Z,1.20
2019-06-07T19:01:13.317Z,1.83
2019-06-07T19:03:42.807Z,0.73
2019-06-07T19:06:12.221Z,1.10
2019-06-07T19:08:41.713Z,0.80
2019-06-07T19:11:11.174Z,0.80
2019-06-07T19:13:40.640Z,1.10
2019-06-07T19:16:10.244Z,0.90
2019-06-07T19:18:39.776Z,0.60
2019-06-07T19:21:11.450Z,0.77
2019-06-07T19:23:44.971Z,0.53
2019-06-07T19:26:16.137Z,1.20
2019-06-07T19:28:50.837Z,0.80
2019-06-07T19:31:21.365Z,0.70
2019-06-07T19:33:57.123Z,0.73
2019-06-07T19:36:31.899Z,0.87
2019-06-07T19:39:07.868Z,1.00
2019-06-07T19:45:24.834Z,0.80
2019-06-07T19:49:00.740Z,0.60
2019-06-07T19:52:39.908Z,0.87
2019-06-07T19:55:44.156Z,0.60
2019-06-07T20:06:36.634Z,0.93
2019-06-07T20:27:25.683Z,1.00
2019-06-07T20:31:10.119Z,1.00
2019-06-07T20:37:44.763Z,1.07
2019-06-07T20:40:24.826Z,0.87
2019-06-07T20:43:35.755Z,0.90
2019-06-07T20:49:25.620Z,0.87
2019-06-07T20:52:02.991Z,0.73
2019-06-07T20:54:42.598Z,0.80
2019-06-07T22:18:00.153Z,0.40
2019-06-07T22:20:56.205Z,0.50
2019-06-07T22:23:48.580Z,0.50
2019-06-07T22:30:33.810Z,0.70
2019-06-07T22:33:55.794Z,0.68
2019-06-07T22:37:00.012Z,1.00
2019-06-07T22:47:19.277Z,0.50
2019-06-07T22:58:03.346Z,0.50
2019-06-07T23:20:09.666Z,0.60
2019-06-07T23:21:58.453Z,0.70
2019-06-07T23:27:52.725Z,0.53
2019-06-07T23:30:40.174Z,0.60
2019-06-07T23:33:21.062Z,0.63
2019-06-07T23:36:19.311Z,0.57
2019-06-07T23:39:22.582Z,0.63
2019-06-07T23:42:11.574Z,0.60
2019-06-07T23:44:58.171Z,0.57
2019-06-07T23:47:27.891Z,0.70
2019-06-07T23:50:01.929Z,0.77
2019-06-07T23:52:49.643Z,0.70
2019-06-07T23:55:20.095Z,0.90
2019-06-07T23:58:02.990Z,0.73
